Time;durP1;ratioP1;P1;durP2;ratioP2;P2;SDS_P1;SDS_P2;PMS_P1;PMS_P2;Temp;Humidity;BMP_temperature;BMP_pressure;BME280_temperature;BME280_humidity;BME280_pressure;Samples;Min_cycle;Max_cycle;Signal;HPM_P1;HPM_P2
2023/05/17 00:00:33;;;;;;;16.58;5.70;;;10.30;99.90;;;;;;5075578;28;20111;-65
2023/05/17 00:02:58;;;;;;;19.50;5.28;;;10.30;99.90;;;;;;5079741;28;20037;-65
2023/05/17 00:05:24;;;;;;;19.15;5.40;;;10.20;99.90;;;;;;5083156;28;20040;-65
2023/05/17 00:07:50;;;;;;;16.90;5.25;;;10.20;99.90;;;;;;5060859;28;20036;-65
2023/05/17 00:10:16;;;;;;;19.92;4.82;;;10.20;99.90;;;;;;5051462;28;20515;-65
2023/05/17 00:12:41;;;;;;;19.83;5.55;;;10.20;99.90;;;;;;5077721;28;20040;-65
2023/05/17 00:15:07;;;;;;;18.98;5.53;;;10.20;99.90;;;;;;5063270;28;20047;-65
2023/05/17 00:17:33;;;;;;;20.15;4.82;;;10.10;99.90;;;;;;5080934;28;20028;-65
2023/05/17 00:19:58;;;;;;;15.95;4.63;;;10.10;99.90;;;;;;5070713;28;20033;-65
2023/05/17 00:22:24;;;;;;;23.30;5.22;;;10.10;99.90;;;;;;5070259;28;20045;-65
2023/05/17 00:24:50;;;;;;;17.83;4.97;;;10.10;99.90;;;;;;5079084;28;20067;-65
2023/05/17 00:27:15;;;;;;;17.70;5.32;;;10.10;99.90;;;;;;5070743;28;20040;-65
2023/05/17 00:29:41;;;;;;;19.65;4.82;;;10.00;99.90;;;;;;5069731;28;20391;-65
2023/05/17 00:32:06;;;;;;;20.63;5.03;;;10.10;99.90;;;;;;5080695;28;20047;-65
2023/05/17 00:34:32;;;;;;;15.80;4.93;;;10.00;99.90;;;;;;5082122;28;20113;-65
2023/05/17 00:36:57;;;;;;;16.33;4.22;;;10.00;99.90;;;;;;5087784;28;20043;-65
2023/05/17 00:39:23;;;;;;;16.48;4.15;;;9.90;99.90;;;;;;5069540;28;20039;-65
2023/05/17 00:41:48;;;;;;;19.40;4.63;;;9.90;99.90;;;;;;5078216;28;20079;-65
2023/05/17 00:44:14;;;;;;;17.60;4.45;;;9.90;99.90;;;;;;5066289;28;20048;-65
2023/05/17 00:46:40;;;;;;;15.43;4.40;;;9.90;99.90;;;;;;5079767;28;20134;-65
2023/05/17 00:49:06;;;;;;;16.20;4.28;;;9.80;99.90;;;;;;5069471;28;20081;-65
2023/05/17 00:51:32;;;;;;;14.68;4.40;;;9.80;99.90;;;;;;5075188;28;20046;-65
2023/05/17 00:53:58;;;;;;;19.83;5.20;;;9.70;99.90;;;;;;5079807;28;20487;-65
2023/05/17 00:56:24;;;;;;;17.90;3.80;;;9.70;99.90;;;;;;5071115;28;20037;-65
2023/05/17 00:58:49;;;;;;;19.70;3.85;;;9.70;99.90;;;;;;5054034;28;20037;-65
2023/05/17 01:01:15;;;;;;;14.20;3.75;;;9.70;99.90;;;;;;5057802;28;20104;-65
2023/05/17 01:03:41;;;;;;;16.35;3.88;;;9.60;99.90;;;;;;5083094;28;20115;-65
2023/05/17 01:06:07;;;;;;;15.77;3.40;;;9.60;99.90;;;;;;5066022;28;20052;-65
2023/05/17 01:08:33;;;;;;;20.05;4.05;;;9.50;99.90;;;;;;5079822;28;20025;-65
2023/05/17 01:11:04;;;;;;;15.35;3.63;;;9.50;99.90;;;;;;5050014;28;20036;-65
2023/05/17 01:13:39;;;;;;;16.55;3.80;;;9.50;99.90;;;;;;5084886;28;20048;-65
2023/05/17 01:16:25;;;;;;;17.73;3.90;;;9.50;99.90;;;;;;5085647;28;20040;-65
2023/05/17 01:19:01;;;;;;;16.23;3.42;;;9.40;99.90;;;;;;5060309;28;20043;-65
2023/05/17 01:21:50;;;;;;;12.05;3.55;;;9.40;99.90;;;;;;5066285;28;20071;-65
2023/05/17 01:24:29;;;;;;;20.92;3.50;;;9.40;99.90;;;;;;5081341;28;20056;-65
2023/05/17 01:26:58;;;;;;;18.88;2.90;;;9.30;99.90;;;;;;5090038;28;20091;-65
2023/05/17 01:29:27;;;;;;;20.30;3.90;;;9.30;99.90;;;;;;5072380;28;20044;-65
2023/05/17 01:31:53;;;;;;;9.95;3.25;;;9.30;99.90;;;;;;5072738;28;20085;-65
2023/05/17 01:34:26;;;;;;;20.30;4.28;;;9.30;99.90;;;;;;5057752;28;20040;-65
2023/05/17 01:36:52;;;;;;;12.65;2.88;;;9.30;99.90;;;;;;5065593;28;20036;-65
2023/05/17 01:39:17;;;;;;;20.27;3.20;;;9.30;99.90;;;;;;5072345;28;20509;-65
2023/05/17 01:41:49;;;;;;;14.13;3.55;;;9.30;99.90;;;;;;5073026;28;20402;-65
2023/05/17 01:44:36;;;;;;;20.95;4.18;;;9.30;99.90;;;;;;5080729;28;20563;-65
2023/05/17 01:47:16;;;;;;;15.48;3.33;;;9.30;99.90;;;;;;5091549;28;20072;-65
2023/05/17 01:49:47;;;;;;;16.48;4.10;;;9.30;99.90;;;;;;5071791;28;20051;-65
2023/05/17 01:52:45;;;;;;;14.75;3.00;;;9.30;99.90;;;;;;5081268;28;20047;-65
2023/05/17 01:55:18;;;;;;;15.25;3.78;;;9.30;99.90;;;;;;5044610;28;20041;-65
2023/05/17 01:57:50;;;;;;;18.58;3.88;;;9.30;99.90;;;;;;5073142;28;20081;-65
2023/05/17 02:00:16;;;;;;;20.45;4.13;;;9.30;99.90;;;;;;5072635;28;20502;-65
2023/05/17 02:02:44;;;;;;;17.10;3.72;;;9.30;99.90;;;;;;5070124;28;20498;-65
2023/05/17 02:05:09;;;;;;;16.88;3.20;;;9.30;99.90;;;;;;5050026;28;20051;-65
2023/05/17 02:07:35;;;;;;;18.08;3.33;;;9.30;99.90;;;;;;5072173;28;20410;-65
2023/05/17 02:10:01;;;;;;;17.50;3.88;;;9.30;99.90;;;;;;5062929;28;20047;-65
2023/05/17 02:12:26;;;;;;;18.63;3.80;;;9.30;99.90;;;;;;5092836;28;20044;-64
2023/05/17 02:14:52;;;;;;;21.30;3.88;;;9.30;99.90;;;;;;5085805;28;20115;-65
2023/05/17 02:17:17;;;;;;;20.30;4.15;;;9.30;99.90;;;;;;5072515;28;20215;-64
2023/05/17 02:19:43;;;;;;;19.08;4.20;;;9.20;99.90;;;;;;5054646;28;20032;-65
2023/05/17 02:22:09;;;;;;;17.33;3.30;;;9.20;99.90;;;;;;5072420;28;20036;-65
2023/05/17 02:24:35;;;;;;;20.48;4.05;;;9.20;99.90;;;;;;5071998;28;20077;-65
2023/05/17 02:27:00;;;;;;;16.50;3.58;;;9.20;99.90;;;;;;5053170;28;20056;-65
2023/05/17 02:29:26;;;;;;;16.70;3.75;;;9.10;99.90;;;;;;5079641;28;20046;-65
2023/05/17 02:31:51;;;;;;;14.15;3.20;;;9.10;99.90;;;;;;5083589;28;20040;-65
2023/05/17 02:34:17;;;;;;;16.52;3.10;;;9.00;99.90;;;;;;5087780;28;20068;-65
2023/05/17 02:36:43;;;;;;;19.75;3.80;;;9.00;99.90;;;;;;5075572;28;20032;-64
2023/05/17 02:39:09;;;;;;;16.92;4.65;;;8.90;99.90;;;;;;5082599;28;20032;-65
2023/05/17 02:41:34;;;;;;;16.98;3.35;;;8.90;99.90;;;;;;5068883;28;20520;-65
2023/05/17 02:44:00;;;;;;;14.63;3.15;;;8.90;99.90;;;;;;5075609;28;20041;-65
2023/05/17 02:46:25;;;;;;;15.15;3.88;;;8.90;99.90;;;;;;5048410;28;20118;-65
2023/05/17 02:48:51;;;;;;;24.90;4.15;;;8.80;99.90;;;;;;5082939;28;20478;-65
2023/05/17 02:51:17;;;;;;;13.75;3.60;;;8.80;99.90;;;;;;5092093;28;20123;-65
2023/05/17 02:53:42;;;;;;;19.52;3.78;;;8.70;99.90;;;;;;5089541;28;20138;-65
2023/05/17 02:56:08;;;;;;;18.65;3.78;;;8.70;99.90;;;;;;5070818;28;20036;-65
2023/05/17 02:58:33;;;;;;;19.65;4.22;;;8.60;99.90;;;;;;5071667;28;20038;-65
2023/05/17 03:00:59;;;;;;;13.63;3.25;;;8.60;99.90;;;;;;5053753;28;20119;-65
2023/05/17 03:03:24;;;;;;;15.90;3.30;;;8.60;99.90;;;;;;5072085;28;20036;-65
2023/05/17 03:05:50;;;;;;;21.33;3.75;;;8.60;99.90;;;;;;5052918;28;20040;-65
2023/05/17 03:08:15;;;;;;;21.25;3.63;;;8.60;99.90;;;;;;5070261;28;20163;-64
2023/05/17 03:10:41;;;;;;;13.90;3.88;;;8.60;99.90;;;;;;5080927;28;20032;-65
2023/05/17 03:13:07;;;;;;;13.48;3.75;;;8.60;99.90;;;;;;5078976;28;20485;-65
2023/05/17 03:15:33;;;;;;;15.93;3.45;;;8.50;99.90;;;;;;5076870;28;20124;-65
2023/05/17 03:17:58;;;;;;;20.95;3.65;;;8.50;99.90;;;;;;5071272;28;20120;-65
2023/05/17 03:20:24;;;;;;;15.57;3.20;;;8.50;99.90;;;;;;5070508;28;20036;-65
2023/05/17 03:22:50;;;;;;;21.25;3.90;;;8.50;99.90;;;;;;5078730;28;20036;-65
2023/05/17 03:25:15;;;;;;;17.10;3.45;;;8.50;99.90;;;;;;5079049;28;20069;-64
2023/05/17 03:27:41;;;;;;;17.70;3.63;;;8.50;99.90;;;;;;5069771;28;20394;-65
2023/05/17 03:30:07;;;;;;;15.90;3.72;;;8.50;99.90;;;;;;5065787;28;20078;-65
2023/05/17 03:32:32;;;;;;;15.30;3.78;;;8.40;99.90;;;;;;5057135;28;20051;-65
2023/05/17 03:34:58;;;;;;;21.13;3.72;;;8.40;99.90;;;;;;5073411;28;20041;-65
2023/05/17 03:37:24;;;;;;;18.80;3.50;;;8.40;99.90;;;;;;5075307;28;20037;-65
2023/05/17 03:39:50;;;;;;;20.83;3.40;;;8.30;99.90;;;;;;5062801;28;20164;-65
2023/05/17 03:42:15;;;;;;;13.55;3.10;;;8.30;99.90;;;;;;5071365;28;20068;-64
2023/05/17 03:44:41;;;;;;;15.13;3.58;;;8.30;99.90;;;;;;5053532;28;20056;-65
2023/05/17 03:47:06;;;;;;;18.40;3.50;;;8.30;99.90;;;;;;5073292;28;20036;-64
2023/05/17 03:49:33;;;;;;;12.88;3.38;;;8.30;99.90;;;;;;5077269;28;20524;-65
2023/05/17 03:51:58;;;;;;;18.15;3.33;;;8.20;99.90;;;;;;5073001;28;20429;-65
2023/05/17 03:54:24;;;;;;;14.48;3.42;;;8.30;99.90;;;;;;5085103;28;20098;-64
2023/05/17 03:56:50;;;;;;;17.35;3.65;;;8.30;99.90;;;;;;5075653;22;20055;-69
2023/05/17 03:59:15;;;;;;;14.95;3.70;;;8.30;99.90;;;;;;5089679;28;20073;-69
2023/05/17 04:01:42;;;;;;;13.85;3.92;;;8.30;99.90;;;;;;5084645;28;20071;-69
2023/05/17 04:04:08;;;;;;;19.73;3.30;;;8.40;99.90;;;;;;5087117;28;20040;-69
2023/05/17 04:06:34;;;;;;;14.50;3.22;;;8.40;99.90;;;;;;5089555;28;20047;-69
2023/05/17 04:09:00;;;;;;;18.02;3.60;;;8.50;99.90;;;;;;5089430;28;20032;-69
2023/05/17 04:11:26;;;;;;;15.27;3.88;;;8.50;99.90;;;;;;5092667;28;20119;-69
2023/05/17 04:13:53;;;;;;;13.10;3.33;;;8.50;99.90;;;;;;5095582;28;20103;-69
2023/05/17 04:16:19;;;;;;;16.40;3.15;;;8.50;99.90;;;;;;5091055;28;20036;-69
2023/05/17 04:18:44;;;;;;;17.65;3.28;;;8.60;99.90;;;;;;5089829;28;20031;-69
2023/05/17 04:21:10;;;;;;;13.18;3.40;;;8.60;99.90;;;;;;5082570;28;20502;-69
2023/05/17 04:23:36;;;;;;;20.10;3.75;;;8.60;99.90;;;;;;5087181;28;20040;-69
2023/05/17 04:26:03;;;;;;;17.42;3.75;;;8.60;99.90;;;;;;5086058;28;20040;-69
2023/05/17 04:28:30;;;;;;;17.48;3.53;;;8.60;99.90;;;;;;5087995;28;20160;-69
2023/05/17 04:30:55;;;;;;;16.23;3.85;;;8.60;99.90;;;;;;5093217;28;20036;-69
2023/05/17 04:33:21;;;;;;;15.77;3.20;;;8.70;99.90;;;;;;5079103;28;20035;-69
2023/05/17 04:35:49;;;;;;;12.85;2.75;;;8.70;99.90;;;;;;5093094;28;20161;-69
2023/05/17 04:38:15;;;;;;;16.65;3.40;;;8.70;99.90;;;;;;5093998;28;20107;-69
2023/05/17 04:40:41;;;;;;;13.15;3.78;;;8.70;99.90;;;;;;5094089;28;20043;-70
2023/05/17 04:43:07;;;;;;;15.02;2.83;;;8.70;99.90;;;;;;5094969;28;20044;-69
2023/05/17 04:45:33;;;;;;;15.50;3.45;;;8.70;99.90;;;;;;5093537;28;20035;-69
2023/05/17 04:47:58;;;;;;;15.70;2.65;;;8.70;99.90;;;;;;5092384;28;20040;-69
2023/05/17 04:50:25;;;;;;;16.52;3.17;;;8.80;99.90;;;;;;5085430;28;20038;-69
2023/05/17 04:52:50;;;;;;;17.70;3.10;;;8.80;99.90;;;;;;5086595;28;20490;-69
2023/05/17 04:55:16;;;;;;;14.90;3.17;;;8.80;99.90;;;;;;5079966;28;20032;-69
2023/05/17 04:57:41;;;;;;;14.57;2.75;;;8.90;99.90;;;;;;5093128;28;20039;-69
2023/05/17 05:00:11;;;;;;;14.02;3.47;;;8.90;99.90;;;;;;5084131;28;20032;-69
2023/05/17 05:02:37;;;;;;;16.35;2.60;;;9.00;99.90;;;;;;5073849;28;20098;-69
2023/05/17 05:05:03;;;;;;;10.77;2.30;;;9.00;99.90;;;;;;5085506;28;20048;-69
2023/05/17 05:07:29;;;;;;;12.48;2.38;;;9.10;99.90;;;;;;5094601;28;20396;-69
2023/05/17 05:09:55;;;;;;;7.28;2.30;;;9.20;99.90;;;;;;5094651;28;20036;-69
2023/05/17 05:12:21;;;;;;;15.40;2.80;;;9.30;99.90;;;;;;5093945;28;20044;-69
2023/05/17 05:14:47;;;;;;;12.63;2.88;;;9.40;99.90;;;;;;5087034;28;20033;-69
2023/05/17 05:17:12;;;;;;;9.98;2.78;;;9.50;99.90;;;;;;5093096;28;20106;-69
2023/05/17 05:19:38;;;;;;;16.88;2.75;;;9.60;99.90;;;;;;5076073;28;20036;-69
2023/05/17 05:22:04;;;;;;;11.95;2.35;;;9.70;99.90;;;;;;5093970;28;20086;-69
2023/05/17 05:24:29;;;;;;;10.60;2.78;;;9.80;99.90;;;;;;5088836;28;20052;-69
2023/05/17 05:26:55;;;;;;;11.35;1.70;;;9.90;99.90;;;;;;5090476;28;20036;-69
2023/05/17 05:29:20;;;;;;;8.73;1.77;;;9.90;99.90;;;;;;5093791;28;20047;-69
2023/05/17 05:31:46;;;;;;;8.57;2.10;;;9.80;99.90;;;;;;5093227;28;20047;-69
2023/05/17 05:34:11;;;;;;;12.10;1.80;;;9.70;99.90;;;;;;5090668;28;20034;-69
2023/05/17 05:36:37;;;;;;;13.52;2.42;;;9.60;99.90;;;;;;5087423;28;20118;-69
2023/05/17 05:39:03;;;;;;;8.18;1.75;;;9.60;99.90;;;;;;5094099;28;20027;-69
2023/05/17 05:41:28;;;;;;;7.95;1.63;;;9.60;99.90;;;;;;5092919;28;20042;-69
2023/05/17 05:43:54;;;;;;;14.60;1.80;;;9.60;99.90;;;;;;5092692;28;20494;-69
2023/05/17 05:46:19;;;;;;;14.45;2.08;;;9.50;99.90;;;;;;5085027;28;20043;-69
2023/05/17 05:48:45;;;;;;;9.93;1.30;;;9.60;99.90;;;;;;5093774;28;20048;-69
2023/05/17 05:51:11;;;;;;;9.10;1.33;;;9.50;99.90;;;;;;5093274;28;20051;-69
2023/05/17 05:53:37;;;;;;;10.50;1.88;;;9.50;99.90;;;;;;5093601;28;20028;-69
2023/05/17 05:56:03;;;;;;;9.90;1.67;;;9.50;99.90;;;;;;5083805;28;20032;-69
2023/05/17 05:58:29;;;;;;;16.00;2.28;;;9.50;99.90;;;;;;5086737;28;20033;-69
2023/05/17 06:00:56;;;;;;;7.68;2.10;;;9.50;99.90;;;;;;5088016;28;20127;-69
2023/05/17 06:03:22;;;;;;;10.52;1.65;;;9.60;99.90;;;;;;5092186;28;20097;-69
2023/05/17 06:05:47;;;;;;;9.07;1.33;;;9.60;99.90;;;;;;5089852;28;20115;-69
2023/05/17 06:08:13;;;;;;;7.85;1.60;;;9.70;99.90;;;;;;5089707;28;20119;-69
2023/05/17 06:10:38;;;;;;;9.90;1.40;;;9.70;99.90;;;;;;5087487;28;20114;-69
2023/05/17 06:13:04;;;;;;;10.25;1.40;;;9.80;99.90;;;;;;5082837;28;20036;-69
2023/05/17 06:15:30;;;;;;;6.95;1.40;;;9.80;99.90;;;;;;5090023;28;20222;-69
2023/05/17 06:17:56;;;;;;;8.25;1.48;;;9.90;99.90;;;;;;5088998;28;20081;-69
2023/05/17 06:20:22;;;;;;;8.32;1.38;;;9.90;99.90;;;;;;5076261;28;20040;-69
2023/05/17 06:22:47;;;;;;;5.93;1.50;;;10.00;99.90;;;;;;5082971;28;20051;-69
2023/05/17 06:25:13;;;;;;;8.65;1.38;;;10.00;99.90;;;;;;5082157;28;20039;-69
2023/05/17 06:27:39;;;;;;;8.10;1.10;;;10.00;99.90;;;;;;5091906;28;20040;-69
2023/05/17 06:30:05;;;;;;;11.35;1.55;;;10.00;99.90;;;;;;5092420;28;20394;-69
2023/05/17 06:32:31;;;;;;;8.30;1.35;;;9.90;99.90;;;;;;5092707;28;20641;-69
2023/05/17 06:34:56;;;;;;;8.30;1.02;;;9.90;99.90;;;;;;5090364;28;20036;-69
2023/05/17 06:37:22;;;;;;;5.60;1.17;;;10.00;99.90;;;;;;5092548;28;20458;-69
2023/05/17 06:39:50;;;;;;;9.75;1.52;;;10.10;99.90;;;;;;5091451;28;20110;-69
2023/05/17 06:42:16;;;;;;;8.02;1.40;;;10.20;99.90;;;;;;5073780;28;20398;-69
2023/05/17 06:44:42;;;;;;;6.82;1.50;;;10.30;99.90;;;;;;5090147;28;20432;-69
2023/05/17 06:47:08;;;;;;;6.97;1.50;;;10.40;99.90;;;;;;5091101;28;20093;-69
2023/05/17 06:49:33;;;;;;;9.88;1.30;;;10.50;99.90;;;;;;5091274;28;20105;-69
2023/05/17 06:52:02;;;;;;;9.23;1.40;;;10.50;99.90;;;;;;5091018;28;20097;-69
2023/05/17 06:54:31;;;;;;;9.27;1.73;;;10.50;99.90;;;;;;5087436;28;20038;-69
2023/05/17 06:57:03;;;;;;;8.68;1.88;;;10.50;99.90;;;;;;5082258;28;20040;-69
2023/05/17 06:59:29;;;;;;;9.15;2.00;;;10.50;99.90;;;;;;5089777;28;20501;-69
2023/05/17 07:01:55;;;;;;;8.65;1.52;;;10.50;99.90;;;;;;5091910;28;20072;-69
2023/05/17 07:04:21;;;;;;;8.88;1.50;;;10.40;99.90;;;;;;5090378;28;20040;-69
2023/05/17 07:06:46;;;;;;;9.27;2.20;;;10.40;99.90;;;;;;5090992;28;20044;-69
2023/05/17 07:09:12;;;;;;;9.38;1.48;;;10.40;99.90;;;;;;5089092;28;20060;-69
2023/05/17 07:11:38;;;;;;;9.60;1.92;;;10.40;99.90;;;;;;5088857;28;20039;-70
2023/05/17 07:14:03;;;;;;;8.93;2.10;;;10.40;99.90;;;;;;5091567;28;20493;-69
2023/05/17 07:16:29;;;;;;;10.05;1.83;;;10.50;99.90;;;;;;5085056;28;20037;-69
2023/05/17 07:18:55;;;;;;;8.77;1.55;;;10.60;99.90;;;;;;5083359;28;20063;-69
2023/05/17 07:21:22;;;;;;;11.73;1.70;;;10.70;99.90;;;;;;5091906;28;20072;-69
2023/05/17 07:23:48;;;;;;;9.25;1.88;;;10.80;99.90;;;;;;5093135;28;20040;-69
2023/05/17 07:26:14;;;;;;;14.05;2.28;;;10.80;99.90;;;;;;5090568;28;20085;-69
2023/05/17 07:28:40;;;;;;;8.43;2.35;;;10.80;99.90;;;;;;5089979;28;22045;-69
2023/05/17 07:31:05;;;;;;;8.68;2.05;;;10.90;99.90;;;;;;5089665;28;20405;-69
2023/05/17 07:33:31;;;;;;;8.82;1.80;;;11.00;99.90;;;;;;5088387;28;20398;-69
2023/05/17 07:35:56;;;;;;;12.45;2.40;;;11.20;99.90;;;;;;5083308;28;20028;-69
2023/05/17 07:38:22;;;;;;;8.93;1.60;;;11.40;99.90;;;;;;5080122;28;20061;-69
2023/05/17 07:40:47;;;;;;;12.05;2.33;;;11.50;99.90;;;;;;5071207;28;20028;-68
2023/05/17 07:43:13;;;;;;;13.77;2.20;;;11.70;99.90;;;;;;5091121;28;20040;-69
2023/05/17 07:45:39;;;;;;;12.43;2.00;;;11.70;99.90;;;;;;5091839;28;20123;-70
2023/05/17 07:48:04;;;;;;;9.88;2.03;;;11.50;99.40;;;;;;5091167;28;20059;-69
2023/05/17 07:50:31;;;;;;;13.23;2.13;;;11.40;99.60;;;;;;5091804;28;20050;-69
2023/05/17 07:52:57;;;;;;;10.68;2.30;;;11.40;98.80;;;;;;5081554;28;20036;-69
2023/05/17 07:55:22;;;;;;;14.10;2.45;;;11.50;99.60;;;;;;5091446;28;20028;-69
2023/05/17 07:57:48;;;;;;;15.00;2.50;;;11.60;99.10;;;;;;5081680;28;20064;-69
2023/05/17 08:00:14;;;;;;;10.88;2.33;;;11.50;99.80;;;;;;5090678;28;20036;-69
2023/05/17 08:02:40;;;;;;;10.25;2.10;;;11.50;99.90;;;;;;5082291;28;20036;-69
2023/05/17 08:05:07;;;;;;;10.80;2.25;;;11.40;99.90;;;;;;5094804;28;20040;-69
2023/05/17 08:07:32;;;;;;;8.52;2.35;;;11.30;99.90;;;;;;5095364;28;20044;-69
2023/05/17 08:09:58;;;;;;;13.60;2.10;;;11.20;99.90;;;;;;5077468;28;20081;-69
2023/05/17 08:12:24;;;;;;;11.55;2.42;;;11.20;99.90;;;;;;5076213;28;20397;-69
2023/05/17 08:14:50;;;;;;;13.00;2.40;;;11.10;99.90;;;;;;5095229;28;20104;-69
2023/05/17 08:17:15;;;;;;;15.45;2.50;;;11.10;99.90;;;;;;5093929;28;20481;-69
2023/05/17 08:19:41;;;;;;;12.50;2.50;;;11.10;99.90;;;;;;5086443;28;20032;-69
2023/05/17 08:22:07;;;;;;;11.73;2.15;;;11.10;99.90;;;;;;5094672;28;20043;-69
2023/05/17 08:24:32;;;;;;;12.68;2.15;;;11.20;99.90;;;;;;5095007;28;20402;-69
2023/05/17 08:26:58;;;;;;;12.40;2.90;;;11.40;99.90;;;;;;5095294;28;20379;-69
2023/05/17 08:29:24;;;;;;;13.73;2.75;;;11.60;99.90;;;;;;5094387;28;20063;-69
2023/05/17 08:31:51;;;;;;;9.63;2.10;;;11.60;99.90;;;;;;5094606;28;20068;-69
2023/05/17 08:34:16;;;;;;;9.65;1.85;;;11.60;99.90;;;;;;5095004;28;20088;-69
2023/05/17 08:36:43;;;;;;;13.30;2.28;;;11.50;99.90;;;;;;5094381;28;20120;-69
2023/05/17 08:39:08;;;;;;;12.77;2.92;;;11.50;99.90;;;;;;5085834;28;20032;-69
2023/05/17 08:41:34;;;;;;;10.27;2.22;;;11.50;99.60;;;;;;5095103;28;20044;-69
2023/05/17 08:44:02;;;;;;;13.57;2.35;;;11.60;99.90;;;;;;5090177;28;20028;-69
2023/05/17 08:46:30;;;;;;;12.43;2.58;;;11.70;99.90;;;;;;5087431;28;20048;-69
2023/05/17 08:48:58;;;;;;;11.88;1.75;;;11.70;99.20;;;;;;5094568;28;20105;-69
2023/05/17 08:51:25;;;;;;;11.38;1.83;;;11.60;97.90;;;;;;5094575;28;20515;-69
2023/05/17 08:53:51;;;;;;;9.40;2.17;;;11.60;97.40;;;;;;5093916;28;20043;-69
2023/05/17 08:56:19;;;;;;;10.88;2.17;;;11.70;96.50;;;;;;5085742;28;20047;-69
2023/05/17 08:58:47;;;;;;;10.73;2.17;;;11.90;96.90;;;;;;5094544;28;20044;-69
2023/05/17 09:01:14;;;;;;;10.65;1.90;;;12.00;96.60;;;;;;5094563;28;20043;-68
2023/05/17 09:03:41;;;;;;;12.82;2.35;;;12.00;96.60;;;;;;5094737;28;20398;-69
2023/05/17 09:06:09;;;;;;;11.55;2.08;;;11.90;97.10;;;;;;5091472;28;20489;-69
2023/05/17 09:08:36;;;;;;;9.68;2.00;;;11.90;97.10;;;;;;5087807;28;20427;-69
2023/05/17 09:11:02;;;;;;;12.95;2.30;;;11.80;97.20;;;;;;5094372;28;20401;-70
2023/05/17 09:13:28;;;;;;;10.10;1.80;;;11.70;97.10;;;;;;5093878;28;20032;-69
2023/05/17 09:15:53;;;;;;;6.18;2.10;;;11.60;96.80;;;;;;5093602;28;20500;-69
2023/05/17 09:18:30;;;;;;;9.38;2.17;;;11.60;97.10;;;;;;5094368;28;20036;-69
2023/05/17 09:21:02;;;;;;;10.32;2.17;;;11.50;96.50;;;;;;5083916;28;20413;-69
2023/05/17 09:23:31;;;;;;;13.05;2.30;;;11.50;96.80;;;;;;5086433;28;20044;-69
2023/05/17 09:26:09;;;;;;;10.90;2.05;;;11.60;97.90;;;;;;5094307;28;20044;-70
2023/05/17 09:28:39;;;;;;;8.90;2.05;;;11.70;97.80;;;;;;5093860;28;20059;-69
2023/05/17 09:31:07;;;;;;;15.48;2.33;;;11.70;97.40;;;;;;5093901;28;20326;-69
2023/05/17 09:33:33;;;;;;;10.93;1.98;;;11.80;97.10;;;;;;5093752;28;20436;-69
2023/05/17 09:36:01;;;;;;;12.45;2.08;;;12.00;97.00;;;;;;5092827;28;20054;-70
2023/05/17 09:38:27;;;;;;;10.68;2.03;;;12.30;96.10;;;;;;5084924;28;20089;-69
2023/05/17 09:40:53;;;;;;;10.32;1.67;;;12.60;95.80;;;;;;5093778;28;20060;-69
2023/05/17 09:43:24;;;;;;;10.15;1.73;;;12.60;94.80;;;;;;5093820;28;20482;-69
2023/05/17 09:45:58;;;;;;;11.65;1.92;;;12.60;93.70;;;;;;5093085;28;20047;-69
2023/05/17 09:48:27;;;;;;;9.18;2.08;;;12.50;92.80;;;;;;5093641;28;20043;-69
2023/05/17 09:50:53;;;;;;;9.52;2.08;;;12.40;93.30;;;;;;5093649;28;20124;-69
2023/05/17 09:53:30;;;;;;;11.45;2.13;;;12.40;93.40;;;;;;5092387;28;20111;-69
2023/05/17 09:58:35;;;;;;;7.85;1.75;;;12.70;92.30;;;;;;5051480;28;20060;-63
2023/05/17 10:01:06;;;;;;;11.35;2.20;;;12.70;91.40;;;;;;5053316;28;20052;-63
2023/05/17 10:03:34;;;;;;;9.63;2.10;;;12.70;91.60;;;;;;5052572;28;20447;-63
2023/05/17 10:06:04;;;;;;;11.18;2.08;;;12.60;92.00;;;;;;5053142;28;20091;-63
2023/05/17 10:08:32;;;;;;;10.25;1.80;;;12.50;92.10;;;;;;5031848;28;20037;-62
2023/05/17 10:11:09;;;;;;;9.95;2.70;;;12.30;91.70;;;;;;5055322;28;20116;-63
2023/05/17 10:13:43;;;;;;;10.90;2.00;;;12.20;91.80;;;;;;5026214;28;20095;-63
2023/05/17 10:16:10;;;;;;;8.02;2.17;;;12.30;92.40;;;;;;5071379;28;20036;-63
2023/05/17 10:18:39;;;;;;;9.60;2.05;;;12.30;92.70;;;;;;5058076;28;20110;-62
2023/05/17 10:21:06;;;;;;;9.40;1.90;;;12.40;92.90;;;;;;5052573;28;20475;-62
2023/05/17 10:23:32;;;;;;;12.07;2.13;;;12.40;93.10;;;;;;5029563;28;20129;-63
2023/05/17 10:25:59;;;;;;;9.32;2.00;;;12.50;93.40;;;;;;5031342;28;20068;-63
2023/05/17 10:28:27;;;;;;;10.23;2.17;;;12.60;93.60;;;;;;5052324;28;20048;-63
2023/05/17 10:30:53;;;;;;;13.35;2.13;;;12.60;93.70;;;;;;5052416;28;20098;-63
2023/05/17 10:33:20;;;;;;;10.77;2.20;;;12.80;94.00;;;;;;5052811;28;20374;-63
2023/05/17 10:35:48;;;;;;;9.43;1.83;;;12.90;93.80;;;;;;5052039;28;20033;-63
2023/05/17 10:38:13;;;;;;;10.50;2.53;;;12.90;92.70;;;;;;5051945;28;20384;-63
2023/05/17 10:40:42;;;;;;;11.32;2.08;;;12.90;92.00;;;;;;5057418;28;20098;-63
2023/05/17 10:43:09;;;;;;;14.98;2.15;;;12.70;92.40;;;;;;5036559;28;20092;-63
2023/05/17 10:45:35;;;;;;;13.77;2.10;;;12.50;92.00;;;;;;5036202;28;20569;-63
2023/05/17 10:48:05;;;;;;;9.80;2.05;;;12.40;92.50;;;;;;5046830;28;20033;-63
2023/05/17 10:50:31;;;;;;;9.63;2.00;;;12.30;92.10;;;;;;5038087;28;20044;-63
2023/05/17 10:52:58;;;;;;;11.90;2.25;;;12.30;92.40;;;;;;5035304;28;20033;-63
2023/05/17 10:55:33;;;;;;;8.52;2.25;;;12.60;93.00;;;;;;5051704;28;20029;-63
2023/05/17 10:58:17;;;;;;;9.98;1.58;;;13.00;93.00;;;;;;5042655;28;20179;-62
2023/05/17 11:00:49;;;;;;;6.57;1.65;;;13.40;91.90;;;;;;5029263;28;20376;-62
2023/05/17 11:03:28;;;;;;;8.50;1.73;;;13.60;88.40;;;;;;5031034;28;20116;-63
2023/05/17 11:06:09;;;;;;;6.45;1.77;;;13.50;82.20;;;;;;5029663;28;20067;-63
2023/05/17 11:08:35;;;;;;;9.40;2.05;;;13.70;83.20;;;;;;5011830;28;20029;-62
2023/05/17 11:11:19;;;;;;;10.18;2.05;;;13.80;83.30;;;;;;5031859;28;20131;-63
2023/05/17 11:13:51;;;;;;;7.57;1.80;;;13.70;82.70;;;;;;5028948;28;20083;-63
2023/05/17 11:16:19;;;;;;;11.73;1.65;;;13.80;84.40;;;;;;5030544;28;20052;-63
2023/05/17 11:18:49;;;;;;;7.40;1.50;;;14.00;84.40;;;;;;5029458;28;20033;-63
2023/05/17 11:21:15;;;;;;;10.35;1.98;;;13.70;80.10;;;;;;5031514;28;20037;-63
2023/05/17 11:23:46;;;;;;;7.43;1.90;;;13.50;79.00;;;;;;5031737;28;20088;-63
2023/05/17 11:26:27;;;;;;;9.02;1.42;;;13.50;79.80;;;;;;5029818;28;20491;-63
2023/05/17 11:29:06;;;;;;;7.50;1.70;;;13.60;80.20;;;;;;5038141;28;20059;-63
2023/05/17 11:31:34;;;;;;;7.03;1.42;;;13.60;77.60;;;;;;5023499;28;20545;-63
2023/05/17 11:34:02;;;;;;;6.93;1.77;;;13.70;77.60;;;;;;5026908;28;20109;-63
2023/05/17 11:36:28;;;;;;;7.32;1.83;;;14.00;77.90;;;;;;5036650;28;20029;-63
2023/05/17 11:39:14;;;;;;;6.10;1.45;;;14.30;76.00;;;;;;5050522;28;20060;-62
2023/05/17 11:41:48;;;;;;;14.45;1.67;;;14.30;76.30;;;;;;5024500;28;20033;-63
2023/05/17 11:44:24;;;;;;;5.38;1.33;;;14.20;77.10;;;;;;5029405;28;20034;-62
2023/05/17 11:46:50;;;;;;;6.03;1.50;;;14.10;77.20;;;;;;5035011;28;20124;-63
2023/05/17 11:49:17;;;;;;;10.13;1.67;;;14.20;76.30;;;;;;5047931;28;20072;-63
2023/05/17 11:51:45;;;;;;;7.28;1.85;;;14.40;76.30;;;;;;5028451;28;20038;-63
2023/05/17 11:54:13;;;;;;;7.28;1.98;;;14.70;76.00;;;;;;5028744;28;20041;-63
2023/05/17 11:56:39;;;;;;;10.32;1.70;;;14.70;74.80;;;;;;5035356;28;20048;-63
2023/05/17 11:59:05;;;;;;;5.00;1.30;;;14.40;72.50;;;;;;5050603;28;20045;-62
2023/05/17 12:01:47;;;;;;;9.05;1.60;;;14.10;70.90;;;;;;5045123;28;21731;-62
2023/05/17 12:04:21;;;;;;;6.43;1.60;;;14.00;69.80;;;;;;5055587;28;20064;-63
2023/05/17 12:06:47;;;;;;;10.65;2.10;;;14.10;73.40;;;;;;5041669;28;20032;-62
2023/05/17 12:09:16;;;;;;;6.85;1.73;;;14.30;73.20;;;;;;5033393;28;20044;-63
2023/05/17 12:11:42;;;;;;;5.00;1.40;;;14.50;74.30;;;;;;5041876;28;20044;-63
2023/05/17 12:14:08;;;;;;;7.30;1.80;;;14.50;72.10;;;;;;5051545;28;20460;-63
2023/05/17 12:16:35;;;;;;;6.18;1.38;;;14.30;69.90;;;;;;5032807;28;20045;-62
2023/05/17 12:19:01;;;;;;;8.13;1.30;;;14.10;69.00;;;;;;5032545;28;20029;-62
2023/05/17 12:21:27;;;;;;;5.38;1.67;;;14.10;71.00;;;;;;5039334;28;20044;-62
2023/05/17 12:23:52;;;;;;;8.60;1.67;;;14.00;69.70;;;;;;5029783;28;20057;-62
2023/05/17 12:26:20;;;;;;;6.55;1.48;;;14.10;69.80;;;;;;5046276;28;20045;-62
2023/05/17 12:28:52;;;;;;;5.05;1.50;;;14.10;68.40;;;;;;5051726;28;20052;-62
2023/05/17 12:31:21;;;;;;;5.78;1.50;;;14.20;70.90;;;;;;5070988;28;20036;-62
2023/05/17 12:33:49;;;;;;;4.40;1.50;;;14.20;69.10;;;;;;5070807;28;20059;-62
2023/05/17 12:36:16;;;;;;;7.28;1.50;;;14.00;68.80;;;;;;5070844;28;20121;-62
2023/05/17 12:38:43;;;;;;;8.48;2.00;;;13.80;70.60;;;;;;5052998;28;20064;-62
2023/05/17 12:41:11;;;;;;;5.97;1.42;;;13.90;71.40;;;;;;5044246;28;20116;-62
2023/05/17 12:43:38;;;;;;;6.55;1.42;;;13.80;69.50;;;;;;5064457;28;20036;-63
2023/05/17 12:46:10;;;;;;;5.10;1.38;;;13.80;69.20;;;;;;5070776;28;20127;-62
2023/05/17 12:48:40;;;;;;;6.38;1.50;;;13.90;67.90;;;;;;5070567;28;20040;-63